Time;durP1;ratioP1;P1;durP2;ratioP2;P2;SDS_P1;SDS_P2;PMS_P1;PMS_P2;Temp;Humidity;BMP_temperature;BMP_pressure;BME280_temperature;BME280_humidity;BME280_pressure;Samples;Min_cycle;Max_cycle;Signal;HPM_P1;HPM_P2
2022/07/06 00:01:34;;;;;;;;;;;15.60;99.90;;;;;;10327395;28;85215;-53
2022/07/06 00:06:35;;;;;;;;;;;15.40;99.90;;;;;;10329228;28;84614;-55
2022/07/06 00:11:36;;;;;;;;;;;15.40;99.90;;;;;;10294099;28;85348;-54
2022/07/06 00:16:37;;;;;;;;;;;15.40;99.90;;;;;;10329715;28;84158;-53
2022/07/06 00:21:37;;;;;;;;;;;15.20;1.00;;;;;;10311342;28;83603;-53
2022/07/06 00:26:38;;;;;;;;;;;15.20;1.00;;;;;;10330925;28;83401;-54
2022/07/06 00:31:39;;;;;;;;;;;15.10;1.00;;;;;;10312512;28;83371;-54
2022/07/06 00:36:40;;;;;;;;;;;15.10;1.00;;;;;;10295355;28;83373;-54
2022/07/06 00:41:40;;;;;;;;;;;15.00;1.00;;;;;;10311558;28;84191;-56
2022/07/06 00:46:41;;;;;;;;;;;14.90;1.00;;;;;;10310339;28;85151;-53
2022/07/06 00:51:42;;;;;;;;;;;14.80;1.00;;;;;;10311086;28;86331;-53
2022/07/06 00:56:43;;;;;;;;;;;14.70;1.00;;;;;;10310693;28;83425;-52
2022/07/06 01:01:43;;;;;;;;;;;14.60;1.00;;;;;;10327530;28;83395;-50
2022/07/06 01:06:45;;;;;;;;;;;14.60;1.00;;;;;;10326884;28;83764;-54
2022/07/06 01:11:45;;;;;;;;;;;14.50;1.00;;;;;;10329410;28;83378;-51
2022/07/06 01:16:46;;;;;;;;;;;14.40;1.00;;;;;;10334486;28;83430;-50
2022/07/06 01:21:47;;;;;;;;;;;14.50;1.00;;;;;;10316232;28;85257;-53
2022/07/06 01:26:48;;;;;;;;;;;14.40;1.00;;;;;;10334310;28;83258;-53
2022/07/06 01:31:49;;;;;;;;;;;14.40;1.00;;;;;;10309933;28;86782;-54
2022/07/06 01:36:50;;;;;;;;;;;14.40;1.00;;;;;;10314997;28;86065;-55
2022/07/06 01:41:53;;;;;;;;;;;14.40;1.00;;;;;;10311967;28;86037;-53
2022/07/06 01:46:53;;;;;;;;;;;14.30;1.00;;;;;;10333303;28;83562;-52
2022/07/06 01:51:54;;;;;;;;;;;14.30;1.00;;;;;;10332117;28;84194;-57
2022/07/06 01:56:57;;;;;;;;;;;14.30;1.00;;;;;;10314724;28;85070;-50
2022/07/06 02:01:58;;;;;;;;;;;14.20;1.00;;;;;;10332272;28;83925;-50
2022/07/06 02:06:58;;;;;;;;;;;14.10;1.00;;;;;;10332115;28;83974;-53
2022/07/06 02:12:00;;;;;;;;;;;14.00;1.00;;;;;;10314200;28;84836;-51
2022/07/06 02:17:00;;;;;;;;;;;14.00;1.00;;;;;;10326353;28;83849;-51
2022/07/06 02:22:01;;;;;;;;;;;14.00;1.00;;;;;;10312460;28;85093;-50
2022/07/06 02:27:02;;;;;;;;;;;13.80;1.00;;;;;;10313531;28;84286;-54
2022/07/06 02:32:03;;;;;;;;;;;13.80;1.00;;;;;;10313841;28;86181;-53
2022/07/06 02:37:04;;;;;;;;;;;13.70;1.00;;;;;;10329325;28;83888;-54
2022/07/06 02:42:05;;;;;;;;;;;13.70;1.00;;;;;;10313241;28;85266;-54
2022/07/06 02:47:06;;;;;;;;;;;13.70;1.00;;;;;;10314474;28;84825;-50
2022/07/06 02:52:06;;;;;;;;;;;13.70;1.00;;;;;;10312144;28;84908;-50
2022/07/06 02:57:07;;;;;;;;;;;13.60;1.00;;;;;;10312650;28;85103;-52
2022/07/06 03:02:08;;;;;;;;;;;13.50;1.00;;;;;;10326592;28;85179;-50
2022/07/06 03:07:09;;;;;;;;;;;13.50;1.00;;;;;;10312350;28;86065;-50
2022/07/06 03:12:10;;;;;;;;;;;13.40;1.00;;;;;;10304906;28;85100;-53
2022/07/06 03:17:10;;;;;;;;;;;13.40;1.00;;;;;;10312329;28;86211;-56
2022/07/06 03:22:11;;;;;;;;;;;13.30;1.00;;;;;;10293933;28;85087;-51
2022/07/06 03:27:12;;;;;;;;;;;13.30;1.00;;;;;;10311997;28;85229;-50
2022/07/06 03:32:13;;;;;;;;;;;13.40;1.00;;;;;;10315308;28;85502;-52
2022/07/06 03:37:14;;;;;;;;;;;13.30;1.00;;;;;;10312465;28;85278;-52
2022/07/06 03:42:16;;;;;;;;;;;13.30;1.00;;;;;;10311757;28;85010;-51
2022/07/06 03:47:17;;;;;;;;;;;13.20;1.00;;;;;;10311856;28;86083;-54
2022/07/06 03:52:19;;;;;;;;;;;13.20;1.00;;;;;;10311101;28;85905;-53
2022/07/06 03:57:25;;;;;;;;;;;13.20;1.00;;;;;;10311495;28;85015;-50
2022/07/06 04:02:27;;;;;;;;;;;13.20;1.00;;;;;;10312908;28;85798;-54
2022/07/06 04:07:28;;;;;;;;;;;13.30;1.00;;;;;;10311898;28;86773;-52
2022/07/06 04:12:28;;;;;;;;;;;13.30;1.00;;;;;;10310651;28;85070;-53
2022/07/06 04:22:49;;;;;;;;;;;13.30;1.00;;;;;;10328136;28;84229;-53
2022/07/06 04:27:50;;;;;;;;;;;13.40;1.00;;;;;;10310806;28;86638;-54
2022/07/06 04:32:51;;;;;;;;;;;13.40;1.00;;;;;;10310521;28;86758;-54
2022/07/06 04:37:52;;;;;;;;;;;13.50;1.00;;;;;;10309618;28;86016;-50
2022/07/06 04:42:55;;;;;;;;;;;13.50;1.00;;;;;;10319200;22;86033;-49
2022/07/06 04:47:56;;;;;;;;;;;13.50;1.00;;;;;;10311440;28;86017;-47
2022/07/06 04:52:58;;;;;;;;;;;13.60;1.00;;;;;;10314012;28;86566;-46
2022/07/06 04:57:59;;;;;;;;;;;13.80;1.00;;;;;;10313540;28;84944;-48
2022/07/06 05:03:01;;;;;;;;;;;14.00;1.00;;;;;;10313852;28;87092;-47
2022/07/06 05:08:02;;;;;;;;;;;14.20;1.00;;;;;;10316566;28;86200;-48
2022/07/06 05:13:03;;;;;;;;;;;14.30;1.00;;;;;;10312206;28;88100;-45
2022/07/06 05:18:03;;;;;;;;;;;14.50;1.00;;;;;;10296273;28;85886;-46
2022/07/06 05:23:05;;;;;;;;;;;14.70;1.00;;;;;;10301182;28;85729;-48
2022/07/06 05:28:07;;;;;;;;;;;14.80;1.00;;;;;;10311394;28;86145;-47
2022/07/06 05:33:07;;;;;;;;;;;14.90;1.00;;;;;;10312637;28;84935;-51
2022/07/06 05:38:08;;;;;;;;;;;15.00;1.00;;;;;;10332131;28;83987;-47
2022/07/06 05:43:09;;;;;;;;;;;15.10;1.00;;;;;;10315995;28;86096;-48
2022/07/06 05:53:31;;;;;;;;;;;15.40;1.00;;;;;;10313277;28;86685;-46
2022/07/06 05:58:32;;;;;;;;;;;15.40;1.00;;;;;;10313677;28;85680;-45
2022/07/06 06:03:34;;;;;;;;;;;15.60;1.00;;;;;;10329614;28;84971;-47
2022/07/06 06:08:37;;;;;;;;;;;15.80;1.00;;;;;;10313411;28;86036;-48
2022/07/06 06:13:39;;;;;;;;;;;15.80;1.00;;;;;;10311731;28;85998;-47
2022/07/06 06:18:40;;;;;;;;;;;15.90;1.00;;;;;;10312897;28;86794;-51
2022/07/06 06:23:40;;;;;;;;;;;16.10;1.00;;;;;;10329972;28;84268;-48
2022/07/06 06:28:41;;;;;;;;;;;16.20;1.00;;;;;;10329023;28;84227;-48
2022/07/06 06:33:42;;;;;;;;;;;16.30;1.00;;;;;;10329244;28;84182;-46
2022/07/06 06:38:42;;;;;;;;;;;16.30;1.00;;;;;;10329710;28;84152;-46
2022/07/06 06:43:43;;;;;;;;;;;16.40;1.00;;;;;;10310912;28;85912;-47
2022/07/06 06:48:48;;;;;;;;;;;16.80;99.90;;;;;;10311258;28;85919;-48
2022/07/06 06:53:49;;;;;;;;;;;17.00;99.90;;;;;;10328347;28;84036;-46
2022/07/06 06:58:50;;;;;;;;;;;17.00;99.90;;;;;;10329683;28;85268;-42
2022/07/06 07:03:51;;;;;;;;;;;16.90;99.90;;;;;;10329946;28;84907;-47
2022/07/06 07:08:51;;;;;;;;;;;17.10;76.90;;;;;;10329089;28;84099;-48
2022/07/06 07:13:52;;;;;;;;;;;17.30;1.00;;;;;;10328586;28;84173;-46
2022/07/06 07:18:52;;;;;;;;;;;17.30;1.00;;;;;;10327940;28;85039;-48
2022/07/06 07:23:53;;;;;;;;;;;17.10;1.00;;;;;;10310119;28;84366;-46
2022/07/06 07:28:53;;;;;;;;;;;17.20;1.00;;;;;;10327700;28;84140;-51
2022/07/06 07:33:56;;;;;;;;;;;17.20;1.00;;;;;;10328867;28;85089;-49
2022/07/06 07:38:57;;;;;;;;;;;17.20;1.00;;;;;;10327591;28;84310;-47
2022/07/06 07:43:57;;;;;;;;;;;17.10;1.00;;;;;;10326752;28;84897;-48
2022/07/06 07:48:58;;;;;;;;;;;17.10;1.00;;;;;;10327587;28;84872;-47
2022/07/06 07:53:59;;;;;;;;;;;17.40;1.00;;;;;;10310029;28;85770;-49
2022/07/06 07:58:59;;;;;;;;;;;17.30;1.00;;;;;;10333611;28;84934;-49
2022/07/06 08:04:04;;;;;;;;;;;17.20;1.00;;;;;;10311112;28;86670;-52
2022/07/06 08:09:07;;;;;;;;;;;17.20;1.00;;;;;;10330588;28;84243;-48
2022/07/06 08:14:07;;;;;;;;;;;17.30;1.00;;;;;;10329051;28;84954;-46
2022/07/06 08:19:09;;;;;;;;;;;17.30;99.90;;;;;;10313054;28;85044;-46
2022/07/06 08:24:09;;;;;;;;;;;17.60;1.00;;;;;;10329025;28;84051;-45
2022/07/06 08:29:10;;;;;;;;;;;17.90;1.00;;;;;;10309557;28;86890;-46
2022/07/06 08:34:11;;;;;;;;;;;18.10;1.00;;;;;;10327608;28;84330;-46
2022/07/06 08:39:11;;;;;;;;;;;18.40;1.00;;;;;;10326962;28;84087;-49
2022/07/06 08:44:12;;;;;;;;;;;18.70;1.00;;;;;;10325850;28;84481;-47
2022/07/06 08:49:14;;;;;;;;;;;19.50;54.00;;;;;;10326678;28;84161;-48
2022/07/06 08:54:15;;;;;;;;;;;19.70;94.20;;;;;;10308362;28;86005;-46
2022/07/06 08:59:15;;;;;;;;;;;19.70;99.90;;;;;;10326612;28;84918;-49
2022/07/06 09:04:18;;;;;;;;;;;20.50;99.90;;;;;;10326555;28;84476;-47
2022/07/06 09:09:20;;;;;;;;;;;20.90;1.00;;;;;;10325500;28;84364;-47
2022/07/06 09:14:20;;;;;;;;;;;21.30;99.90;;;;;;10308572;28;86021;-47
2022/07/06 09:19:21;;;;;;;;;;;21.20;1.00;;;;;;10309125;28;84242;-52
2022/07/06 09:24:22;;;;;;;;;;;21.20;1.00;;;;;;10324846;28;85016;-50
2022/07/06 09:29:29;;;;;;;;;;;21.10;99.90;;;;;;10325760;28;84981;-50
2022/07/06 09:34:45;;;;;;;;;;;20.70;99.90;;;;;;10329962;28;84960;-47
2022/07/06 09:39:46;;;;;;;;;;;20.90;99.90;;;;;;10332235;28;84876;-47
2022/07/06 09:44:47;;;;;;;;;;;21.80;82.40;;;;;;10331830;28;84950;-52
2022/07/06 09:49:48;;;;;;;;;;;22.90;1.00;;;;;;10331957;28;84024;-50
2022/07/06 09:54:48;;;;;;;;;;;23.10;1.00;;;;;;10331525;28;85031;-50
2022/07/06 09:59:52;;;;;;;;;;;23.20;1.00;;;;;;10331465;28;84927;-52
2022/07/06 10:04:54;;;;;;;;;;;22.80;99.90;;;;;;10331756;28;84193;-50
2022/07/06 10:09:55;;;;;;;;;;;22.30;1.00;;;;;;10331462;28;84221;-47
2022/07/06 10:14:56;;;;;;;;;;;22.00;1.00;;;;;;10331232;28;85412;-46
2022/07/06 10:19:57;;;;;;;;;;;21.50;1.00;;;;;;10313387;28;84070;-49
2022/07/06 10:24:59;;;;;;;;;;;21.40;1.00;;;;;;10331802;28;84901;-49
2022/07/06 10:29:59;;;;;;;;;;;21.80;1.00;;;;;;10331598;28;84828;-48
2022/07/06 10:35:00;;;;;;;;;;;22.30;1.00;;;;;;10330534;28;84944;-49
2022/07/06 10:45:29;;;;;;;;;;;22.90;1.00;;;;;;10429500;22;84982;-54
2022/07/06 10:50:34;;;;;;;;;;;23.30;99.90;;;;;;10415139;28;85021;-52
2022/07/06 10:55:36;;;;;;;;;;;23.10;99.90;;;;;;10413821;28;84134;-50
2022/07/06 11:00:50;;;;;;;;;;;22.50;99.90;;;;;;10413388;28;84096;-50
2022/07/06 11:05:57;;;;;;;;;;;22.70;99.90;;;;;;10412711;28;84006;-55
2022/07/06 11:11:09;;;;;;;;;;;24.70;99.90;;;;;;10411203;28;86069;-54
2022/07/06 11:16:10;;;;;;;;;;;24.60;99.90;;;;;;10413111;28;84834;-51
2022/07/06 11:21:21;;;;;;;;;;;25.60;16.30;;;;;;10413259;28;84046;-55
2022/07/06 11:26:22;;;;;;;;;;;25.10;1.00;;;;;;10413903;28;84200;-53
2022/07/06 11:31:23;;;;;;;;;;;24.70;1.00;;;;;;10416987;28;84089;-51
2022/07/06 11:36:23;;;;;;;;;;;25.20;1.00;;;;;;10420148;28;84168;-54
2022/07/06 11:41:24;;;;;;;;;;;25.40;1.00;;;;;;10418506;28;84888;-55
2022/07/06 11:46:27;;;;;;;;;;;24.70;1.00;;;;;;10455435;28;84800;-54
2022/07/06 11:51:28;;;;;;;;;;;24.60;1.00;;;;;;10455543;27;84084;-52
2022/07/06 11:56:29;;;;;;;;;;;23.50;1.00;;;;;;10456048;28;84054;-54
2022/07/06 12:01:33;;;;;;;;;;;23.10;1.00;;;;;;10450137;27;85011;-55
2022/07/06 12:06:33;;;;;;;;;;;24.70;1.00;;;;;;10443802;28;84917;-51
2022/07/06 12:11:34;;;;;;;;;;;26.40;1.00;;;;;;10454622;28;86145;-58
2022/07/06 12:16:36;;;;;;;;;;;25.80;1.00;;;;;;10457312;28;85173;-49
2022/07/06 12:21:41;;;;;;;;;;;24.80;1.00;;;;;;10445723;28;84891;-63
2022/07/06 12:26:42;;;;;;;;;;;24.40;1.00;;;;;;10431458;28;84368;-51
2022/07/06 12:31:48;;;;;;;;;;;25.20;1.00;;;;;;10438827;28;85041;-50
2022/07/06 12:36:50;;;;;;;;;;;26.10;1.00;;;;;;10439612;28;84883;-51
2022/07/06 12:41:52;;;;;;;;;;;27.30;1.00;;;;;;10431778;28;84896;-54
2022/07/06 12:47:18;;;;;;;;;;;27.80;1.00;;;;;;10434154;28;84697;-53
2022/07/06 12:52:19;;;;;;;;;;;27.50;1.00;;;;;;10427930;28;84315;-53
2022/07/06 12:57:21;;;;;;;;;;;28.40;1.00;;;;;;10450037;28;84201;-52
2022/07/06 13:02:25;;;;;;;;;;;29.10;1.00;;;;;;10450003;28;85761;-50
2022/07/06 13:07:27;;;;;;;;;;;28.20;1.00;;;;;;10434383;28;84722;-49
2022/07/06 13:12:27;;;;;;;;;;;27.00;1.00;;;;;;10458174;28;84985;-53
2022/07/06 13:17:28;;;;;;;;;;;25.90;1.00;;;;;;10459252;28;84925;-52
2022/07/06 13:22:28;;;;;;;;;;;24.90;1.00;;;;;;10458691;28;84950;-51
2022/07/06 13:27:29;;;;;;;;;;;24.80;1.00;;;;;;10439637;28;85780;-53
2022/07/06 13:32:29;;;;;;;;;;;26.40;1.00;;;;;;10458492;28;84018;-52
2022/07/06 13:37:30;;;;;;;;;;;26.70;1.00;;;;;;10459579;28;85255;-53
2022/07/06 13:42:30;;;;;;;;;;;25.40;1.00;;;;;;10458715;28;84114;-56
2022/07/06 13:47:31;;;;;;;;;;;24.90;1.00;;;;;;10441341;28;84922;-52
2022/07/06 13:52:32;;;;;;;;;;;24.40;1.00;;;;;;10458313;28;84960;-50
2022/07/06 13:57:32;;;;;;;;;;;23.80;1.00;;;;;;10457907;28;84150;-51
2022/07/06 14:02:33;;;;;;;;;;;23.50;1.00;;;;;;10458321;28;86772;-50
2022/07/06 14:07:33;;;;;;;;;;;23.50;1.00;;;;;;10457130;28;84213;-50
2022/07/06 14:12:34;;;;;;;;;;;22.90;1.00;;;;;;10457355;28;84118;-54
2022/07/06 14:17:35;;;;;;;;;;;23.10;1.00;;;;;;10456991;27;84939;-52
2022/07/06 14:22:35;;;;;;;;;;;23.20;1.00;;;;;;10456718;28;84875;-51
2022/07/06 14:27:36;;;;;;;;;;;22.90;1.00;;;;;;10457443;28;84918;-53
2022/07/06 14:32:36;;;;;;;;;;;22.80;1.00;;;;;;10457531;28;84207;-50
2022/07/06 14:37:37;;;;;;;;;;;22.90;1.00;;;;;;10457481;28;84991;-50
2022/07/06 14:42:38;;;;;;;;;;;22.70;1.00;;;;;;10455969;28;84234;-54
2022/07/06 14:47:38;;;;;;;;;;;22.80;1.00;;;;;;10456958;28;84331;-53
2022/07/06 14:52:39;;;;;;;;;;;22.90;1.00;;;;;;10456137;28;84102;-56
2022/07/06 14:57:39;;;;;;;;;;;22.80;1.00;;;;;;10456750;28;84932;-51
2022/07/06 15:02:41;;;;;;;;;;;22.50;1.00;;;;;;10456288;28;84848;-51
2022/07/06 15:07:42;;;;;;;;;;;22.50;1.00;;;;;;10456223;28;84840;-52
2022/07/06 15:12:42;;;;;;;;;;;22.40;1.00;;;;;;10455589;28;84134;-50
2022/07/06 15:17:43;;;;;;;;;;;22.80;1.00;;;;;;10455240;28;85374;-51
2022/07/06 15:22:43;;;;;;;;;;;22.90;1.00;;;;;;10455395;28;84505;-51
2022/07/06 15:27:44;;;;;;;;;;;23.00;1.00;;;;;;10455142;28;85092;-52
2022/07/06 15:32:44;;;;;;;;;;;22.90;1.00;;;;;;10453967;27;84215;-51
2022/07/06 15:37:45;;;;;;;;;;;22.70;1.00;;;;;;10454694;28;84097;-52
2022/07/06 15:42:46;;;;;;;;;;;22.90;1.00;;;;;;10453704;28;84282;-49
2022/07/06 15:47:46;;;;;;;;;;;22.90;1.00;;;;;;10453694;28;84873;-51
2022/07/06 15:52:47;;;;;;;;;;;22.70;1.00;;;;;;10454583;28;84329;-50
2022/07/06 15:57:47;;;;;;;;;;;22.60;1.00;;;;;;10453263;28;86466;-52
2022/07/06 16:02:48;;;;;;;;;;;22.60;1.00;;;;;;10452746;28;84858;-49
2022/07/06 16:07:49;;;;;;;;;;;22.50;1.00;;;;;;10452211;28;84159;-50
2022/07/06 16:12:51;;;;;;;;;;;22.60;1.00;;;;;;10452197;28;84123;-54
2022/07/06 16:17:54;;;;;;;;;;;22.60;1.00;;;;;;10452374;28;103782;-51
2022/07/06 16:22:55;;;;;;;;;;;22.80;1.00;;;;;;10452884;28;84071;-53
2022/07/06 16:27:57;;;;;;;;;;;22.80;1.00;;;;;;10453494;28;84087;-53
2022/07/06 16:32:58;;;;;;;;;;;22.80;1.00;;;;;;10453008;28;84173;-52
2022/07/06 16:37:58;;;;;;;;;;;22.60;1.00;;;;;;10452987;28;84746;-51
2022/07/06 16:42:59;;;;;;;;;;;22.70;1.00;;;;;;10479353;22;85018;-47
2022/07/06 16:48:00;;;;;;;;;;;22.60;1.00;;;;;;10494515;27;84038;-49
2022/07/06 16:53:01;;;;;;;;;;;22.30;1.00;;;;;;10494147;27;85071;-47
2022/07/06 16:58:02;;;;;;;;;;;22.30;1.00;;;;;;10493923;27;84162;-49
2022/07/06 17:03:02;;;;;;;;;;;22.30;1.00;;;;;;10494284;27;84863;-48
2022/07/06 17:08:03;;;;;;;;;;;22.30;1.00;;;;;;10476847;27;85946;-47
2022/07/06 17:13:04;;;;;;;;;;;22.20;1.00;;;;;;10494221;27;84000;-48
2022/07/06 17:18:04;;;;;;;;;;;22.10;1.00;;;;;;10494293;27;84887;-49
2022/07/06 17:23:05;;;;;;;;;;;22.00;1.00;;;;;;10493696;27;83958;-44
2022/07/06 17:28:06;;;;;;;;;;;21.80;1.00;;;;;;10493387;27;84002;-48
2022/07/06 17:33:06;;;;;;;;;;;21.80;1.00;;;;;;10493768;27;84088;-51
2022/07/06 17:38:07;;;;;;;;;;;21.80;1.00;;;;;;10493808;27;84519;-51
2022/07/06 17:43:08;;;;;;;;;;;21.80;1.00;;;;;;10493295;27;85025;-48
2022/07/06 17:48:08;;;;;;;;;;;21.60;1.00;;;;;;10493128;27;84314;-47
2022/07/06 17:53:09;;;;;;;;;;;21.60;3.60;;;;;;10494548;27;84127;-52
2022/07/06 17:58:09;;;;;;;;;;;21.50;72.90;;;;;;10500903;27;85036;-47
2022/07/06 18:03:10;;;;;;;;;;;21.40;99.90;;;;;;10473489;27;84331;-47
2022/07/06 18:08:10;;;;;;;;;;;21.30;99.90;;;;;;10477265;27;84121;-49
2022/07/06 18:13:11;;;;;;;;;;;21.20;99.90;;;;;;10476020;27;84178;-47
2022/07/06 18:18:11;;;;;;;;;;;21.10;99.90;;;;;;10457052;27;84829;-49
2022/07/06 18:23:12;;;;;;;;;;;21.10;99.90;;;;;;10466455;27;87097;-46
2022/07/06 18:28:16;;;;;;;;;;;21.00;1.00;;;;;;10490659;27;84931;-47
2022/07/06 18:33:16;;;;;;;;;;;20.90;1.00;;;;;;10491252;27;85020;-49
2022/07/06 18:38:17;;;;;;;;;;;20.80;1.00;;;;;;10485572;27;84946;-47
2022/07/06 18:43:17;;;;;;;;;;;20.70;1.00;;;;;;10486733;27;85338;-48
2022/07/06 18:48:18;;;;;;;;;;;20.50;99.90;;;;;;10492209;27;85263;-47
2022/07/06 18:53:19;;;;;;;;;;;20.40;1.00;;;;;;10497961;27;84905;-53
2022/07/06 18:58:20;;;;;;;;;;;20.30;1.00;;;;;;10489942;27;84294;-47
2022/07/06 19:03:20;;;;;;;;;;;20.10;1.00;;;;;;10468220;27;84991;-49
2022/07/06 19:08:21;;;;;;;;;;;20.10;1.00;;;;;;10471753;27;84473;-49
2022/07/06 19:13:22;;;;;;;;;;;19.90;99.90;;;;;;10486507;27;84897;-53
2022/07/06 19:18:23;;;;;;;;;;;19.90;1.00;;;;;;10477995;27;84786;-51
2022/07/06 19:23:23;;;;;;;;;;;19.80;1.00;;;;;;10475114;27;85048;-46
2022/07/06 19:28:27;;;;;;;;;;;19.60;1.00;;;;;;10458414;27;84616;-47
2022/07/06 19:33:28;;;;;;;;;;;19.60;1.00;;;;;;10478508;27;84187;-51
2022/07/06 19:38:28;;;;;;;;;;;19.60;1.00;;;;;;10479558;27;84097;-47
2022/07/06 19:43:29;;;;;;;;;;;19.60;99.90;;;;;;10478284;27;84826;-52
2022/07/06 19:48:30;;;;;;;;;;;19.50;1.00;;;;;;10482073;27;84564;-48
2022/07/06 19:53:30;;;;;;;;;;;19.50;99.90;;;;;;10480122;27;84242;-48
2022/07/06 19:58:31;;;;;;;;;;;19.40;1.00;;;;;;10483902;27;84830;-47
2022/07/06 20:03:31;;;;;;;;;;;19.40;1.00;;;;;;10462564;27;85984;-46
2022/07/06 20:08:32;;;;;;;;;;;19.30;1.00;;;;;;10478146;27;84193;-46
2022/07/06 20:13:32;;;;;;;;;;;19.30;1.00;;;;;;10456459;27;86089;-58
2022/07/06 20:18:33;;;;;;;;;;;19.30;1.00;;;;;;10472635;27;84850;-45
2022/07/06 20:23:34;;;;;;;;;;;19.30;1.00;;;;;;10453750;27;84870;-46
2022/07/06 20:28:38;;;;;;;;;;;19.20;1.00;;;;;;10480759;27;84806;-47
2022/07/06 20:33:39;;;;;;;;;;;19.20;99.90;;;;;;10478217;27;84544;-47
2022/07/06 20:38:39;;;;;;;;;;;19.30;99.90;;;;;;10472968;27;84755;-51
2022/07/06 20:43:42;;;;;;;;;;;19.30;99.90;;;;;;10464049;27;84514;-46
2022/07/06 20:48:42;;;;;;;;;;;19.30;36.20;;;;;;10476519;27;85000;-46
2022/07/06 20:53:44;;;;;;;;;;;19.30;99.90;;;;;;10468129;27;84199;-48
2022/07/06 20:58:45;;;;;;;;;;;19.20;1.00;;;;;;10477478;27;84724;-49
2022/07/06 21:03:45;;;;;;;;;;;19.00;99.90;;;;;;10469330;27;84646;-46
2022/07/06 21:08:46;;;;;;;;;;;18.90;1.00;;;;;;10444990;27;84316;-48
2022/07/06 21:13:47;;;;;;;;;;;18.90;1.00;;;;;;10464192;27;84873;-46
2022/07/06 21:18:48;;;;;;;;;;;18.90;1.00;;;;;;10479581;27;84902;-46
2022/07/06 21:23:48;;;;;;;;;;;18.80;99.90;;;;;;10468379;27;84930;-49
2022/07/06 21:28:49;;;;;;;;;;;18.70;99.90;;;;;;10451523;27;86877;-45
2022/07/06 21:33:49;;;;;;;;;;;18.70;1.00;;;;;;10479288;27;84091;-48
2022/07/06 21:38:50;;;;;;;;;;;18.80;1.00;;;;;;10455683;27;86623;-43
2022/07/06 21:43:50;;;;;;;;;;;18.80;1.00;;;;;;10481095;27;84184;-47
2022/07/06 21:48:51;;;;;;;;;;;18.90;26.40;;;;;;10483490;27;84087;-49
2022/07/06 21:53:51;;;;;;;;;;;18.90;49.20;;;;;;10476341;27;85216;-46
2022/07/06 21:58:52;;;;;;;;;;;18.70;99.90;;;;;;10455995;27;87209;-50
2022/07/06 22:03:52;;;;;;;;;;;18.70;99.90;;;;;;10473772;27;84033;-48
2022/07/06 22:08:53;;;;;;;;;;;18.60;1.00;;;;;;10481912;27;84100;-46
2022/07/06 22:13:53;;;;;;;;;;;18.60;1.00;;;;;;10473358;27;84781;-45
2022/07/06 22:18:54;;;;;;;;;;;18.60;1.00;;;;;;10472344;27;84970;-47
2022/07/06 22:23:56;;;;;;;;;;;18.60;1.00;;;;;;10479904;27;84276;-46
2022/07/06 22:28:56;;;;;;;;;;;18.50;49.10;;;;;;10480567;27;83952;-46
2022/07/06 22:33:57;;;;;;;;;;;18.50;80.00;;;;;;10471920;27;84864;-46
2022/07/06 22:38:59;;;;;;;;;;;18.40;90.70;;;;;;10470964;27;85019;-48
2022/07/06 22:43:59;;;;;;;;;;;18.40;99.90;;;;;;10473850;22;84673;-52
2022/07/06 22:49:00;;;;;;;;;;;18.50;42.20;;;;;;10402735;28;85667;-50
2022/07/06 22:54:01;;;;;;;;;;;18.50;1.00;;;;;;10398235;28;85040;-51
2022/07/06 22:59:01;;;;;;;;;;;18.50;1.00;;;;;;10411964;28;84137;-51
2022/07/06 23:04:02;;;;;;;;;;;18.50;1.00;;;;;;10413121;28;84979;-50
2022/07/06 23:09:02;;;;;;;;;;;18.50;1.00;;;;;;10385552;28;84584;-50
2022/07/06 23:14:03;;;;;;;;;;;18.50;1.00;;;;;;10412191;28;84881;-49
2022/07/06 23:19:03;;;;;;;;;;;18.50;1.00;;;;;;10412145;28;84855;-50
2022/07/06 23:24:04;;;;;;;;;;;18.50;1.00;;;;;;10412306;28;85222;-51
2022/07/06 23:29:04;;;;;;;;;;;18.50;1.00;;;;;;10412416;28;84871;-54
2022/07/06 23:34:05;;;;;;;;;;;18.50;1.00;;;;;;10412609;28;84852;-54
2022/07/06 23:39:06;;;;;;;;;;;18.50;1.00;;;;;;10411504;28;84163;-53
2022/07/06 23:44:06;;;;;;;;;;;18.50;1.00;;;;;;10410598;28;84308;-52
2022/07/06 23:49:07;;;;;;;;;;;18.60;1.00;;;;;;10411474;28;84868;-50
2022/07/06 23:54:07;;;;;;;;;;;18.50;1.00;;;;;;10400784;28;84944;-51
2022/07/06 23:59:08;;;;;;;;;;;18.60;1.00;;;;;;10405121;28;84477;-50
